createdAt,value
2023-02-14T00:00:42.883Z,21.09
2023-02-14T00:03:09.548Z,21.08
2023-02-14T00:05:36.243Z,21.07
2023-02-14T00:08:02.905Z,21.14
2023-02-14T00:10:29.557Z,20.97
2023-02-14T00:12:56.078Z,20.68
2023-02-14T00:15:23.021Z,20.95
2023-02-14T00:17:55.261Z,21.14
2023-02-14T00:20:22.840Z,21.15
2023-02-14T00:22:49.749Z,20.97
2023-02-14T00:25:16.696Z,21.12
2023-02-14T00:27:43.306Z,20.85
2023-02-14T00:30:12.812Z,21.02
2023-02-14T00:32:40.607Z,21.14
2023-02-14T00:35:09.276Z,21.10
2023-02-14T00:37:36.749Z,21.10
2023-02-14T00:40:05.209Z,21.15
2023-02-14T00:42:32.007Z,21.08
2023-02-14T00:44:58.555Z,21.15
2023-02-14T00:47:25.241Z,21.16
2023-02-14T00:49:51.910Z,21.06
2023-02-14T00:52:18.604Z,21.09
2023-02-14T00:54:45.194Z,21.15
2023-02-14T00:57:13.818Z,21.15
2023-02-14T00:59:40.383Z,21.16
2023-02-14T01:02:07.255Z,21.16
2023-02-14T01:04:34.454Z,21.14
2023-02-14T01:07:01.041Z,21.05
2023-02-14T01:09:27.730Z,21.13
2023-02-14T01:11:54.438Z,21.15
2023-02-14T01:14:21.008Z,21.02
2023-02-14T01:16:49.531Z,21.13
2023-02-14T01:19:16.722Z,21.08
2023-02-14T01:21:43.952Z,21.04
2023-02-14T01:24:12.064Z,21.17
2023-02-14T01:26:39.482Z,20.96
2023-02-14T01:29:06.488Z,20.72
2023-02-14T01:31:35.060Z,21.17
2023-02-14T01:34:02.684Z,21.16
2023-02-14T01:36:32.910Z,21.15
2023-02-14T01:39:02.486Z,21.16
2023-02-14T01:41:32.774Z,21.16
2023-02-14T01:44:06.531Z,21.15
2023-02-14T01:46:36.470Z,21.16
2023-02-14T01:49:21.949Z,21.16
2023-02-14T01:52:33.473Z,21.14
2023-02-14T01:55:05.202Z,21.14
2023-02-14T01:57:44.035Z,20.91
2023-02-14T02:00:29.969Z,21.14
2023-02-14T02:02:58.767Z,21.12
2023-02-14T02:05:26.102Z,21.02
2023-02-14T02:07:58.904Z,21.12
2023-02-14T02:10:27.854Z,21.13
2023-02-14T02:12:55.014Z,21.14
2023-02-14T02:15:24.326Z,21.10
2023-02-14T02:18:08.752Z,21.13
2023-02-14T02:20:44.087Z,21.14
2023-02-14T02:23:41.808Z,21.13
2023-02-14T02:26:43.501Z,21.14
2023-02-14T02:29:48.593Z,21.11
2023-02-14T02:32:42.885Z,21.12
2023-02-14T02:35:37.619Z,21.10
2023-02-14T02:38:33.692Z,21.10
2023-02-14T02:41:09.352Z,21.10
2023-02-14T02:43:36.945Z,21.10
2023-02-14T02:46:29.754Z,21.10
2023-02-14T02:49:04.650Z,21.11
2023-02-14T02:52:03.093Z,21.11
2023-02-14T02:54:37.738Z,21.10
2023-02-14T02:57:09.282Z,21.12
2023-02-14T02:59:41.800Z,21.12
2023-02-14T03:02:23.628Z,21.12
2023-02-14T03:04:59.870Z,21.11
2023-02-14T03:07:41.317Z,21.11
2023-02-14T03:10:16.162Z,21.11
2023-02-14T03:13:11.964Z,21.10
2023-02-14T03:15:53.773Z,21.12
2023-02-14T03:18:39.046Z,21.10
2023-02-14T03:21:42.720Z,21.10
2023-02-14T03:24:27.698Z,21.08
2023-02-14T03:27:22.999Z,21.07
2023-02-14T03:30:17.990Z,21.05
2023-02-14T03:33:01.650Z,20.86
2023-02-14T03:35:47.261Z,21.08
2023-02-14T03:38:26.029Z,20.84
2023-02-14T03:40:58.279Z,21.00
2023-02-14T03:43:35.613Z,21.08
2023-02-14T03:46:11.828Z,20.91
2023-02-14T03:48:41.347Z,21.08
2023-02-14T03:51:11.128Z,21.08
2023-02-14T03:53:43.779Z,20.81
2023-02-14T03:56:10.401Z,21.08
2023-02-14T03:58:43.662Z,21.08
2023-02-14T04:01:20.867Z,20.97
2023-02-14T04:03:48.853Z,21.09
2023-02-14T04:06:18.541Z,21.07
2023-02-14T04:08:45.205Z,21.05
2023-02-14T04:11:12.288Z,21.08
2023-02-14T04:13:39.476Z,21.07
2023-02-14T04:16:07.005Z,21.07
2023-02-14T04:18:52.349Z,21.07
2023-02-14T04:21:18.943Z,21.04
2023-02-14T04:23:45.450Z,21.06
2023-02-14T04:26:12.075Z,21.05
2023-02-14T04:28:39.737Z,21.05
2023-02-14T04:31:07.093Z,21.02
2023-02-14T04:33:34.201Z,21.04
2023-02-14T04:36:01.291Z,21.04
2023-02-14T04:38:28.030Z,21.05
2023-02-14T04:40:54.702Z,21.04
2023-02-14T04:43:21.240Z,20.99
2023-02-14T04:45:47.828Z,20.97
2023-02-14T04:48:14.485Z,21.03
2023-02-14T04:50:41.222Z,21.01
2023-02-14T04:53:07.761Z,21.03
2023-02-14T04:55:37.033Z,21.03
2023-02-14T04:58:03.590Z,21.01
2023-02-14T05:00:30.248Z,20.97
2023-02-14T05:02:56.802Z,20.99
2023-02-14T05:05:23.354Z,21.01
2023-02-14T05:07:49.899Z,21.00
2023-02-14T05:10:16.740Z,21.00
2023-02-14T05:12:43.644Z,21.00
2023-02-14T05:15:10.444Z,20.84
2023-02-14T05:17:37.289Z,20.94
2023-02-14T05:20:07.348Z,20.99
2023-02-14T05:22:33.901Z,20.94
2023-02-14T05:25:00.535Z,20.87
2023-02-14T05:27:27.178Z,20.77
2023-02-14T05:29:53.935Z,20.97
2023-02-14T05:32:21.197Z,20.88
2023-02-14T05:34:47.789Z,20.83
2023-02-14T05:37:14.399Z,20.87
2023-02-14T05:39:43.584Z,20.82
2023-02-14T05:42:10.164Z,20.98
2023-02-14T05:44:36.730Z,20.98
2023-02-14T05:47:03.502Z,20.99
2023-02-14T05:49:30.012Z,20.93
2023-02-14T05:51:56.682Z,20.97
2023-02-14T05:54:23.268Z,20.96
2023-02-14T05:56:49.880Z,20.92
2023-02-14T05:59:16.441Z,20.97
2023-02-14T06:01:43.109Z,20.92
2023-02-14T06:04:09.677Z,20.97
2023-02-14T06:06:36.904Z,20.73
2023-02-14T06:09:03.815Z,20.45
2023-02-14T06:11:30.441Z,20.86
2023-02-14T06:13:57.428Z,20.44
2023-02-14T06:16:24.112Z,20.96
2023-02-14T06:18:50.624Z,20.97
2023-02-14T06:21:17.226Z,20.95
2023-02-14T06:23:43.778Z,20.96
2023-02-14T06:26:10.453Z,20.95
2023-02-14T06:28:36.999Z,20.95
2023-02-14T06:31:04.179Z,20.85
2023-02-14T06:33:30.926Z,20.95
2023-02-14T06:35:57.534Z,20.94
2023-02-14T06:38:24.104Z,20.94
2023-02-14T06:40:50.773Z,20.94
2023-02-14T06:43:17.271Z,20.93
2023-02-14T06:45:43.988Z,20.91
2023-02-14T06:48:10.553Z,20.85
2023-02-14T06:50:37.317Z,20.89
2023-02-14T06:53:03.873Z,20.93
2023-02-14T06:55:30.472Z,20.92
2023-02-14T06:57:57.159Z,20.93
2023-02-14T07:00:23.833Z,20.75
2023-02-14T07:02:50.421Z,20.93
2023-02-14T07:05:18.941Z,20.73
2023-02-14T07:07:46.367Z,20.93
2023-02-14T07:10:13.827Z,20.91
2023-02-14T07:12:40.699Z,20.93
2023-02-14T07:15:09.479Z,20.75
2023-02-14T07:17:36.005Z,20.91
2023-02-14T07:20:04.053Z,20.62
2023-02-14T07:22:30.718Z,20.49
2023-02-14T07:24:57.453Z,20.89
2023-02-14T07:27:24.194Z,20.76
2023-02-14T07:29:50.972Z,20.76
2023-02-14T07:32:17.736Z,20.86
2023-02-14T07:34:44.542Z,20.48
2023-02-14T07:37:11.194Z,20.56
2023-02-14T07:39:37.822Z,20.85
2023-02-14T07:42:04.376Z,20.17
2023-02-14T07:44:32.214Z,20.59
2023-02-14T07:46:58.733Z,20.87
2023-02-14T07:49:25.384Z,20.85
2023-02-14T07:51:52.027Z,20.86
2023-02-14T07:54:20.269Z,20.72
2023-02-14T07:56:46.944Z,20.62
2023-02-14T07:59:13.558Z,20.72
2023-02-14T08:01:40.258Z,20.61
2023-02-14T08:04:07.139Z,20.83
2023-02-14T08:06:33.919Z,20.83
2023-02-14T08:09:01.669Z,20.83
2023-02-14T08:11:46.964Z,20.62
2023-02-14T08:14:13.736Z,20.47
2023-02-14T08:16:40.364Z,20.69
2023-02-14T08:19:06.994Z,20.55
2023-02-14T08:21:33.928Z,20.59
2023-02-14T08:24:00.824Z,20.46
2023-02-14T08:26:27.530Z,20.32
2023-02-14T08:28:56.664Z,20.78
2023-02-14T08:31:35.699Z,20.83
2023-02-14T08:34:04.535Z,20.87
2023-02-14T08:36:31.106Z,20.68
2023-02-14T08:38:57.851Z,20.70
2023-02-14T08:41:24.573Z,20.75
2023-02-14T08:43:51.319Z,20.80
2023-02-14T08:46:18.107Z,20.86
2023-02-14T08:48:44.778Z,20.78
2023-02-14T08:51:17.137Z,20.74
2023-02-14T08:53:44.396Z,20.51
2023-02-14T08:56:17.242Z,20.98
2023-02-14T08:58:43.911Z,20.90
2023-02-14T09:01:17.951Z,21.02
2023-02-14T09:03:45.118Z,20.89
2023-02-14T09:06:16.886Z,21.03
2023-02-14T09:08:44.860Z,20.97
2023-02-14T09:11:14.621Z,21.05
2023-02-14T09:13:42.610Z,21.06
2023-02-14T09:16:11.764Z,20.92
2023-02-14T09:18:38.935Z,21.03
2023-02-14T09:21:14.726Z,21.09
2023-02-14T09:23:41.934Z,21.10
2023-02-14T09:26:11.152Z,21.12
2023-02-14T09:28:38.635Z,21.13
2023-02-14T09:31:13.577Z,21.12
2023-02-14T09:33:41.351Z,21.12
2023-02-14T09:36:26.901Z,21.14
2023-02-14T09:38:55.703Z,21.14
2023-02-14T09:41:31.203Z,21.16
2023-02-14T09:44:04.584Z,21.16
2023-02-14T09:46:42.325Z,21.17
2023-02-14T09:49:15.915Z,21.16
2023-02-14T09:51:48.627Z,21.19
2023-02-14T09:54:22.093Z,21.20
2023-02-14T09:56:55.825Z,21.21
2023-02-14T09:59:31.320Z,21.22
2023-02-14T10:02:03.896Z,21.23
2023-02-14T10:05:08.949Z,21.24
2023-02-14T10:08:06.902Z,21.24
2023-02-14T10:10:39.645Z,21.25
2023-02-14T10:13:29.782Z,21.20
2023-02-14T10:16:03.500Z,21.26
2023-02-14T10:18:46.436Z,21.27
2023-02-14T10:21:23.466Z,21.25
2023-02-14T10:23:57.652Z,21.31
2023-02-14T10:26:32.665Z,21.31
2023-02-14T10:28:59.262Z,21.33
2023-02-14T10:31:25.864Z,21.34
2023-02-14T10:34:00.844Z,21.34
2023-02-14T10:36:36.558Z,21.36
2023-02-14T10:39:40.671Z,21.37
2023-02-14T10:42:25.161Z,21.37
2023-02-14T10:45:03.736Z,21.38
2023-02-14T10:48:08.273Z,20.84
2023-02-14T10:50:46.855Z,21.38
2023-02-14T10:53:28.018Z,21.38
2023-02-14T10:56:01.283Z,21.38
2023-02-14T10:58:32.447Z,21.37
2023-02-14T11:01:05.550Z,21.40
2023-02-14T11:03:34.865Z,21.38
2023-02-14T11:06:01.413Z,21.40
2023-02-14T11:08:35.089Z,21.41
2023-02-14T11:11:07.482Z,21.41
2023-02-14T11:13:37.160Z,21.41
2023-02-14T11:16:39.926Z,21.41
2023-02-14T11:19:19.554Z,21.43
2023-02-14T11:21:47.712Z,21.44
2023-02-14T11:24:31.943Z,21.44
2023-02-14T11:27:10.773Z,21.43
2023-02-14T11:29:43.536Z,21.43
2023-02-14T11:32:20.417Z,21.09
2023-02-14T11:35:00.482Z,21.43
2023-02-14T11:37:28.742Z,21.41
2023-02-14T11:39:58.342Z,21.21
2023-02-14T11:42:40.539Z,21.24
2023-02-14T11:45:08.695Z,21.35
2023-02-14T11:47:42.901Z,21.25
2023-02-14T11:50:24.617Z,21.27
2023-02-14T11:52:54.707Z,21.41
2023-02-14T11:55:35.878Z,21.39
2023-02-14T11:58:05.755Z,21.28
2023-02-14T12:00:33.761Z,21.28
2023-02-14T12:03:04.717Z,21.02
2023-02-14T12:05:35.353Z,20.84
2023-02-14T12:08:05.243Z,21.37
2023-02-14T12:10:33.759Z,20.05
2023-02-14T12:13:04.498Z,21.36
2023-02-14T12:15:42.451Z,21.35
2023-02-14T12:18:09.167Z,21.34
2023-02-14T12:20:44.115Z,21.17
2023-02-14T12:23:33.646Z,21.20
2023-02-14T12:26:13.413Z,21.23
2023-02-14T12:28:50.822Z,21.32
2023-02-14T12:31:18.678Z,21.30
2023-02-14T12:33:46.865Z,21.30
2023-02-14T12:36:47.158Z,21.29
2023-02-14T12:39:32.502Z,21.29
2023-02-14T12:42:00.168Z,21.27
2023-02-14T12:45:02.167Z,21.27
2023-02-14T12:47:31.625Z,21.26
2023-02-14T12:50:17.696Z,21.26
2023-02-14T12:52:56.712Z,21.26
2023-02-14T12:55:29.190Z,21.25
2023-02-14T12:58:19.863Z,21.25
2023-02-14T13:00:56.866Z,21.03
2023-02-14T13:04:01.344Z,21.24
2023-02-14T13:06:35.448Z,20.92
2023-02-14T13:09:17.185Z,21.23
2023-02-14T13:11:52.978Z,20.96
2023-02-14T13:14:36.337Z,21.21
2023-02-14T13:17:21.674Z,21.21
2023-02-14T13:20:00.387Z,20.98
2023-02-14T13:22:30.103Z,21.20
2023-02-14T13:25:31.679Z,21.20
2023-02-14T13:28:01.763Z,21.20
2023-02-14T13:30:32.415Z,21.08
2023-02-14T13:33:06.705Z,21.08
2023-02-14T13:35:37.237Z,21.18
2023-02-14T13:38:08.401Z,20.84
2023-02-14T13:40:36.473Z,20.90
2023-02-14T13:43:03.919Z,20.75
2023-02-14T13:45:32.699Z,21.17
2023-02-14T13:48:10.943Z,21.17
2023-02-14T13:50:54.574Z,21.13
2023-02-14T13:53:40.508Z,21.15
2023-02-14T13:56:31.054Z,21.02
2023-02-14T13:59:00.468Z,21.15
2023-02-14T14:01:35.722Z,20.88
2023-02-14T14:04:23.491Z,20.72
2023-02-14T14:07:13.712Z,21.14
2023-02-14T14:09:40.261Z,21.13
2023-02-14T14:12:26.705Z,21.12
2023-02-14T14:15:05.720Z,21.12
2023-02-14T14:17:33.618Z,21.11
2023-02-14T14:20:02.388Z,20.97
2023-02-14T14:22:29.435Z,21.04
2023-02-14T14:25:05.718Z,20.96
2023-02-14T14:27:35.861Z,21.09
2023-02-14T14:30:07.630Z,20.70
2023-02-14T14:32:38.382Z,20.06
2023-02-14T14:35:25.529Z,21.02
2023-02-14T14:37:57.743Z,21.01
2023-02-14T14:40:32.194Z,21.07
2023-02-14T14:43:09.788Z,21.08
2023-02-14T14:45:36.510Z,20.83
2023-02-14T14:48:10.056Z,20.99
2023-02-14T14:50:36.980Z,21.00
2023-02-14T14:53:09.716Z,21.05
2023-02-14T14:55:38.101Z,21.04
2023-02-14T14:58:09.083Z,21.04
2023-02-14T15:00:38.525Z,20.87
2023-02-14T15:03:11.849Z,21.03
2023-02-14T15:05:42.507Z,20.99
2023-02-14T15:08:21.585Z,21.01
2023-02-14T15:10:55.720Z,20.93
2023-02-14T15:13:57.446Z,21.00
2023-02-14T15:16:28.662Z,20.98
2023-02-14T15:19:10.527Z,20.80
2023-02-14T15:21:40.291Z,20.97
2023-02-14T15:24:13.385Z,20.62
2023-02-14T15:26:44.366Z,20.84
2023-02-14T15:29:22.388Z,20.96
2023-02-14T15:31:49.981Z,20.77
2023-02-14T15:34:24.423Z,20.88
2023-02-14T15:36:54.004Z,20.81
2023-02-14T15:39:25.796Z,20.27
2023-02-14T15:41:54.002Z,20.73
2023-02-14T15:44:23.143Z,20.91
2023-02-14T15:46:55.965Z,20.81
2023-02-14T15:49:30.099Z,20.85
2023-02-14T15:51:57.022Z,20.81
2023-02-14T15:54:45.723Z,20.88
2023-02-14T15:57:23.947Z,20.77
2023-02-14T15:59:51.201Z,20.63
2023-02-14T16:02:37.838Z,20.84
2023-02-14T16:05:17.787Z,20.09
2023-02-14T16:08:22.502Z,20.85
2023-02-14T16:11:02.657Z,20.73
2023-02-14T16:13:42.014Z,20.58
2023-02-14T16:16:11.224Z,20.39
2023-02-14T16:18:43.707Z,20.74
2023-02-14T16:21:12.321Z,20.31
2023-02-14T16:23:39.231Z,20.72
2023-02-14T16:26:06.951Z,20.72
2023-02-14T16:28:36.797Z,20.72
2023-02-14T16:31:10.229Z,20.64
2023-02-14T16:33:39.516Z,20.53
2023-02-14T16:36:27.844Z,20.75
2023-02-14T16:38:58.140Z,20.35
2023-02-14T16:41:27.678Z,20.76
2023-02-14T16:43:55.189Z,20.51
2023-02-14T16:46:25.603Z,20.74
2023-02-14T16:48:52.866Z,20.61
2023-02-14T16:51:25.326Z,20.38
2023-02-14T16:53:52.581Z,20.58
2023-02-14T16:56:46.601Z,20.72
2023-02-14T16:59:13.276Z,20.38
2023-02-14T17:01:40.968Z,20.45
2023-02-14T17:04:07.785Z,20.26
2023-02-14T17:06:40.029Z,20.32
2023-02-14T17:09:11.555Z,20.28
2023-02-14T17:11:48.255Z,20.19
2023-02-14T17:14:19.773Z,20.68
2023-02-14T17:16:49.300Z,20.31
2023-02-14T17:19:17.813Z,20.67
2023-02-14T17:21:44.643Z,20.67
2023-02-14T17:24:11.310Z,20.67
2023-02-14T17:26:38.157Z,20.34
2023-02-14T17:29:06.776Z,20.66
2023-02-14T17:31:34.578Z,20.10
2023-02-14T17:34:01.348Z,20.39
2023-02-14T17:36:28.245Z,20.30
2023-02-14T17:38:57.570Z,19.21
2023-02-14T17:41:26.546Z,20.33
2023-02-14T17:44:00.178Z,20.64
2023-02-14T17:46:28.808Z,20.64
2023-02-14T17:48:56.624Z,20.63
2023-02-14T17:51:24.261Z,20.62
2023-02-14T17:53:51.419Z,20.55
2023-02-14T17:56:21.943Z,20.55
2023-02-14T17:58:51.317Z,20.60
2023-02-14T18:01:25.363Z,20.60
2023-02-14T18:03:53.808Z,20.61
2023-02-14T18:06:21.273Z,20.44
2023-02-14T18:08:49.915Z,20.48
2023-02-14T18:11:18.815Z,20.58
2023-02-14T18:13:46.478Z,20.65
2023-02-14T18:16:18.602Z,20.64
2023-02-14T18:18:51.047Z,20.69
2023-02-14T18:21:21.077Z,20.62
2023-02-14T18:23:48.360Z,20.44
2023-02-14T18:26:16.396Z,20.64
2023-02-14T18:28:43.104Z,20.58
2023-02-14T18:31:12.716Z,20.70
2023-02-14T18:33:39.882Z,20.71
2023-02-14T18:36:12.605Z,20.70
2023-02-14T18:38:41.067Z,20.65
2023-02-14T18:41:10.234Z,20.62
2023-02-14T18:43:37.393Z,20.70
2023-02-14T18:46:05.420Z,20.69
2023-02-14T18:48:32.776Z,20.69
2023-02-14T18:51:37.280Z,20.68
2023-02-14T18:54:05.729Z,20.49
2023-02-14T18:56:38.491Z,20.15
2023-02-14T18:59:08.222Z,20.53
2023-02-14T19:01:38.483Z,20.67
2023-02-14T19:04:08.668Z,20.65
2023-02-14T19:06:36.189Z,20.54
2023-02-14T19:09:07.780Z,20.66
2023-02-14T19:11:38.677Z,20.65
2023-02-14T19:14:12.607Z,20.64
2023-02-14T19:16:43.879Z,20.46
2023-02-14T19:19:11.337Z,20.58
2023-02-14T19:21:38.538Z,20.54
2023-02-14T19:24:07.147Z,20.64
2023-02-14T19:26:39.922Z,20.64
2023-02-14T19:29:12.300Z,20.63
2023-02-14T19:31:40.991Z,20.63
2023-02-14T19:34:14.728Z,20.56
2023-02-14T19:36:41.467Z,20.51
2023-02-14T19:39:08.361Z,20.55
2023-02-14T19:41:39.677Z,20.35
2023-02-14T19:44:09.099Z,20.59
2023-02-14T19:46:40.166Z,20.47
2023-02-14T19:49:08.034Z,20.55
2023-02-14T19:51:36.104Z,20.60
2023-02-14T19:54:12.798Z,20.47
2023-02-14T19:56:42.671Z,20.58
2023-02-14T19:59:10.503Z,20.59
2023-02-14T20:01:46.712Z,20.59
2023-02-14T20:04:20.258Z,20.54
2023-02-14T20:06:49.270Z,20.60
2023-02-14T20:09:19.888Z,20.59
2023-02-14T20:11:52.011Z,19.88
2023-02-14T20:17:12.190Z,20.05
2023-02-14T20:19:39.088Z,20.52
2023-02-14T20:22:08.245Z,20.28
2023-02-14T20:24:38.239Z,20.29
2023-02-14T20:27:08.186Z,20.43
2023-02-14T20:29:36.110Z,20.57
2023-02-14T20:32:05.009Z,20.57
2023-02-14T20:34:31.735Z,20.38
2023-02-14T20:37:01.918Z,20.37
2023-02-14T20:39:34.935Z,20.27
2023-02-14T20:42:08.413Z,20.41
2023-02-14T20:44:35.476Z,20.37
2023-02-14T20:47:08.038Z,20.55
2023-02-14T20:49:37.839Z,20.53
2023-02-14T20:52:07.270Z,20.54
2023-02-14T20:54:34.016Z,20.54
2023-02-14T20:57:00.607Z,20.37
2023-02-14T20:59:28.632Z,20.54
2023-02-14T21:01:59.569Z,20.36
2023-02-14T21:04:27.035Z,20.39
2023-02-14T21:06:55.191Z,20.09
2023-02-14T21:09:24.824Z,20.51
2023-02-14T21:11:54.128Z,20.39
2023-02-14T21:14:21.331Z,20.45
2023-02-14T21:16:48.337Z,20.59
2023-02-14T21:19:18.578Z,20.51
2023-02-14T21:21:45.917Z,20.57
2023-02-14T21:24:14.773Z,20.13
2023-02-14T21:26:42.406Z,20.42
2023-02-14T21:29:09.481Z,20.33
2023-02-14T21:31:37.810Z,20.57
2023-02-14T21:34:05.026Z,20.43
2023-02-14T21:36:35.595Z,20.42
2023-02-14T21:39:04.457Z,20.38
2023-02-14T21:41:31.731Z,20.37
2023-02-14T21:44:00.052Z,20.55
2023-02-14T21:46:31.864Z,20.52
2023-02-14T21:49:20.263Z,20.54
2023-02-14T21:51:47.516Z,20.54
2023-02-14T21:54:14.295Z,20.53
2023-02-14T21:56:41.580Z,20.53
2023-02-14T21:59:09.634Z,20.53
2023-02-14T22:01:37.732Z,20.45
2023-02-14T22:04:09.545Z,20.47
2023-02-14T22:06:38.759Z,20.31
2023-02-14T22:09:05.904Z,20.46
2023-02-14T22:11:32.829Z,20.52
2023-02-14T22:14:00.274Z,20.26
2023-02-14T22:16:27.075Z,20.31
2023-02-14T22:18:53.662Z,20.54
2023-02-14T22:21:23.571Z,20.38
2023-02-14T22:23:50.808Z,20.57
2023-02-14T22:26:18.760Z,20.56
2023-02-14T22:28:48.141Z,20.51
2023-02-14T22:31:16.253Z,20.59
2023-02-14T22:33:43.599Z,20.59
2023-02-14T22:36:12.516Z,20.45
2023-02-14T22:38:39.311Z,20.61
2023-02-14T22:41:20.608Z,20.62
2023-02-14T22:43:47.885Z,20.62
2023-02-14T22:46:17.439Z,20.63
2023-02-14T22:48:44.203Z,20.64
2023-02-14T22:51:28.784Z,20.63
2023-02-14T22:53:58.522Z,20.65
2023-02-14T22:56:31.077Z,20.66
2023-02-14T22:59:00.019Z,20.65
2023-02-14T23:01:27.103Z,20.66
2023-02-14T23:03:58.485Z,20.58
2023-02-14T23:06:27.408Z,20.68
2023-02-14T23:08:55.151Z,20.68
2023-02-14T23:11:28.173Z,20.67
2023-02-14T23:14:14.481Z,20.68
2023-02-14T23:17:00.992Z,20.65
2023-02-14T23:19:49.893Z,20.63
2023-02-14T23:22:22.410Z,20.69
2023-02-14T23:24:50.960Z,20.69
2023-02-14T23:27:20.122Z,20.28
2023-02-14T23:29:46.875Z,20.71
2023-02-14T23:32:14.115Z,20.62
2023-02-14T23:34:45.930Z,20.73
2023-02-14T23:37:13.990Z,20.70
2023-02-14T23:39:41.521Z,20.60
2023-02-14T23:42:11.031Z,20.75
2023-02-14T23:44:37.986Z,20.67
2023-02-14T23:47:07.156Z,20.72
2023-02-14T23:49:35.616Z,20.72
2023-02-14T23:52:02.569Z,20.77
2023-02-14T23:54:29.142Z,20.80
2023-02-14T23:56:57.433Z,20.82
2023-02-14T23:59:24.373Z,20.76
